createdAt,value
2023-02-21T00:00:09.692Z,71.05
2023-02-21T00:02:55.102Z,70.32
2023-02-21T00:05:40.879Z,72.93
2023-02-21T00:08:26.420Z,70.70
2023-02-21T00:11:13.641Z,69.38
2023-02-21T00:13:59.446Z,72.68
2023-02-21T00:16:44.986Z,67.25
2023-02-21T00:19:30.403Z,70.22
2023-02-21T00:22:15.818Z,75.65
2023-02-21T00:25:01.448Z,71.15
2023-02-21T00:27:48.239Z,73.68
2023-02-21T00:30:34.578Z,75.95
2023-02-21T00:33:20.565Z,79.80
2023-02-21T00:36:06.232Z,76.47
2023-02-21T00:38:51.630Z,73.78
2023-02-21T00:41:37.141Z,79.68
2023-02-21T00:44:23.918Z,69.82
2023-02-21T00:47:09.445Z,73.78
2023-02-21T00:49:55.106Z,71.22
2023-02-21T00:52:40.481Z,77.57
2023-02-21T00:55:26.412Z,81.80
2023-02-21T00:58:11.978Z,80.43
2023-02-21T01:00:58.626Z,82.82
2023-02-21T01:03:44.213Z,80.82
2023-02-21T01:06:30.968Z,84.35
2023-02-21T01:09:16.528Z,88.07
2023-02-21T01:12:01.813Z,90.50
2023-02-21T01:14:47.159Z,87.30
2023-02-21T01:17:33.826Z,85.93
2023-02-21T01:20:20.024Z,88.80
2023-02-21T01:23:05.631Z,90.28
2023-02-21T01:25:51.019Z,81.75
2023-02-21T01:28:36.366Z,83.80
2023-02-21T01:31:21.838Z,87.15
2023-02-21T01:34:08.754Z,86.28
2023-02-21T01:36:54.372Z,83.25
2023-02-21T01:39:40.031Z,80.03
2023-02-21T01:42:27.361Z,86.45
2023-02-21T01:45:56.971Z,87.43
2023-02-21T01:48:44.496Z,81.78
2023-02-21T01:51:34.395Z,82.68
2023-02-21T01:54:19.866Z,82.53
2023-02-21T01:57:06.088Z,82.00
2023-02-21T01:59:51.706Z,83.57
2023-02-21T02:02:42.756Z,79.15
2023-02-21T02:05:30.219Z,80.35
2023-02-21T02:08:17.034Z,83.07
2023-02-21T02:11:04.496Z,81.70
2023-02-21T02:13:55.467Z,84.22
2023-02-21T02:16:31.078Z,79.78
2023-02-21T02:19:27.201Z,78.05
2023-02-21T02:22:28.881Z,83.47
2023-02-21T02:25:16.279Z,83.40
2023-02-21T02:28:11.326Z,84.70
2023-02-21T02:31:14.524Z,81.78
2023-02-21T02:34:16.174Z,81.35
2023-02-21T02:36:50.392Z,77.90
2023-02-21T02:39:25.180Z,79.32
2023-02-21T02:42:03.670Z,84.03
2023-02-21T02:44:39.777Z,78.97
2023-02-21T02:47:12.053Z,83.28
2023-02-21T02:49:43.857Z,86.03
2023-02-21T02:52:13.265Z,86.85
2023-02-21T02:54:41.345Z,88.15
2023-02-21T02:57:12.935Z,85.28
2023-02-21T02:59:44.886Z,89.95
2023-02-21T03:02:26.758Z,88.20
2023-02-21T03:05:26.217Z,86.47
2023-02-21T03:08:01.615Z,88.70
2023-02-21T03:10:39.681Z,87.95
2023-02-21T03:13:14.180Z,89.53
2023-02-21T03:15:48.498Z,93.60
2023-02-21T03:18:22.015Z,93.60
2023-02-21T03:20:54.886Z,90.97
2023-02-21T03:23:27.603Z,90.35
2023-02-21T03:25:58.936Z,88.75
2023-02-21T03:28:27.464Z,91.68
2023-02-21T03:31:00.209Z,95.60
2023-02-21T03:33:28.447Z,91.63
2023-02-21T03:35:56.613Z,88.45
2023-02-21T03:38:28.659Z,88.60
2023-02-21T03:40:56.794Z,90.65
2023-02-21T03:43:24.938Z,90.55
2023-02-21T03:45:52.999Z,94.20
2023-02-21T03:48:31.354Z,92.43
2023-02-21T03:51:00.512Z,89.95
2023-02-21T03:53:29.990Z,90.13
2023-02-21T03:55:57.992Z,92.75
2023-02-21T03:58:26.058Z,91.07
2023-02-21T04:00:54.868Z,92.38
2023-02-21T04:03:22.923Z,87.93
2023-02-21T04:05:51.143Z,88.72
2023-02-21T04:08:19.562Z,94.63
2023-02-21T04:10:52.413Z,91.35
2023-02-21T04:13:20.947Z,89.10
2023-02-21T04:15:49.011Z,90.47
2023-02-21T04:18:17.136Z,88.72
2023-02-21T04:20:46.275Z,93.57
2023-02-21T04:23:16.765Z,96.50
2023-02-21T04:25:44.960Z,94.25
2023-02-21T04:28:14.376Z,91.93
2023-02-21T04:30:42.477Z,95.00
2023-02-21T04:33:10.578Z,96.47
2023-02-21T04:35:38.628Z,92.97
2023-02-21T04:38:06.854Z,90.53
2023-02-21T04:40:34.868Z,90.97
2023-02-21T04:43:02.848Z,89.93
2023-02-21T04:45:32.339Z,88.50
2023-02-21T04:48:00.404Z,92.68
2023-02-21T04:50:28.711Z,94.90
2023-02-21T04:52:56.794Z,96.38
2023-02-21T04:55:24.854Z,96.03
2023-02-21T04:57:52.856Z,96.88
2023-02-21T05:00:20.956Z,87.25
2023-02-21T05:02:50.422Z,92.70
2023-02-21T05:05:18.654Z,90.53
2023-02-21T05:07:46.697Z,92.07
2023-02-21T05:10:16.911Z,93.18
2023-02-21T05:12:45.360Z,93.07
2023-02-21T05:15:15.256Z,90.82
2023-02-21T05:17:43.337Z,94.85
2023-02-21T05:20:13.376Z,91.80
2023-02-21T05:22:42.117Z,91.43
2023-02-21T05:25:16.634Z,90.13
2023-02-21T05:27:44.920Z,89.47
2023-02-21T05:30:14.314Z,92.25
2023-02-21T05:32:43.254Z,89.53
2023-02-21T05:35:14.935Z,93.57
2023-02-21T05:37:43.069Z,90.70
2023-02-21T05:40:13.111Z,90.55
2023-02-21T05:42:41.125Z,90.15
2023-02-21T05:45:10.122Z,89.18
2023-02-21T05:47:38.418Z,93.40
2023-02-21T05:50:07.203Z,90.18
2023-02-21T05:52:36.680Z,91.68
2023-02-21T05:55:05.125Z,86.75
2023-02-21T05:57:38.545Z,90.90
2023-02-21T06:00:07.960Z,93.43
2023-02-21T06:02:36.107Z,90.05
2023-02-21T06:05:04.149Z,89.75
2023-02-21T06:07:32.250Z,90.30
2023-02-21T06:10:01.793Z,92.60
2023-02-21T06:12:29.839Z,86.85
2023-02-21T06:14:57.906Z,88.57
2023-02-21T06:17:25.960Z,89.60
2023-02-21T06:19:56.535Z,91.55
2023-02-21T06:22:25.067Z,91.50
2023-02-21T06:24:53.080Z,84.22
2023-02-21T06:27:22.562Z,88.05
2023-02-21T06:29:50.577Z,86.20
2023-02-21T06:32:18.648Z,88.72
2023-02-21T06:34:46.871Z,88.80
2023-02-21T06:37:14.875Z,90.60
2023-02-21T06:39:42.916Z,88.88
2023-02-21T06:42:15.156Z,86.28
2023-02-21T06:44:46.273Z,89.13
2023-02-21T06:47:14.604Z,90.47
2023-02-21T06:49:42.903Z,88.93
2023-02-21T06:52:11.626Z,88.65
2023-02-21T06:54:40.010Z,84.60
2023-02-21T06:57:08.099Z,86.00
2023-02-21T06:59:36.716Z,93.93
2023-02-21T07:02:06.135Z,87.88
2023-02-21T07:04:34.734Z,88.63
2023-02-21T07:07:02.895Z,90.18
2023-02-21T07:09:30.920Z,82.93
2023-02-21T07:11:58.979Z,89.68
2023-02-21T07:14:26.993Z,84.75
2023-02-21T07:16:54.975Z,88.20
2023-02-21T07:19:24.442Z,89.10
2023-02-21T07:21:52.498Z,88.15
2023-02-21T07:24:20.589Z,88.25
2023-02-21T07:26:48.655Z,88.75
2023-02-21T07:29:17.483Z,89.57
2023-02-21T07:31:45.768Z,86.45
2023-02-21T07:34:15.205Z,77.95
2023-02-21T07:36:44.599Z,82.22
2023-02-21T07:39:12.872Z,86.10
2023-02-21T07:41:40.899Z,81.60
2023-02-21T07:44:09.117Z,81.10
2023-02-21T07:46:37.297Z,79.50
2023-02-21T07:49:05.366Z,73.85
2023-02-21T07:51:33.570Z,76.15
2023-02-21T07:54:02.988Z,75.68
2023-02-21T07:56:31.028Z,73.50
2023-02-21T07:58:59.017Z,78.72
2023-02-21T08:01:28.082Z,79.53
2023-02-21T08:03:56.129Z,75.95
2023-02-21T08:06:24.326Z,76.47
2023-02-21T08:08:52.336Z,73.88
2023-02-21T08:11:21.722Z,75.93
2023-02-21T08:13:49.734Z,74.97
2023-02-21T08:16:17.991Z,76.20
2023-02-21T08:18:50.667Z,71.97
2023-02-21T08:21:18.926Z,70.72
2023-02-21T08:23:46.888Z,71.90
2023-02-21T08:26:14.941Z,72.55
2023-02-21T08:28:44.265Z,72.57
2023-02-21T08:31:12.526Z,76.07
2023-02-21T08:33:40.980Z,75.38
2023-02-21T08:36:09.386Z,76.10
2023-02-21T08:38:37.384Z,75.80
2023-02-21T08:41:06.212Z,71.53
2023-02-21T08:43:34.297Z,72.40
2023-02-21T08:46:03.871Z,71.15
2023-02-21T08:48:31.868Z,69.53
2023-02-21T08:50:59.853Z,71.30
2023-02-21T08:53:27.853Z,69.85
2023-02-21T08:55:55.931Z,68.32
2023-02-21T08:58:24.353Z,67.93
2023-02-21T09:00:52.329Z,67.95
2023-02-21T09:03:21.731Z,66.93
2023-02-21T09:05:49.889Z,68.72
2023-02-21T09:08:20.863Z,70.80
2023-02-21T09:10:49.400Z,69.07
2023-02-21T09:13:17.447Z,70.50
2023-02-21T09:15:45.501Z,68.93
2023-02-21T09:18:13.550Z,70.90
2023-02-21T09:20:43.256Z,71.40
2023-02-21T09:23:11.593Z,71.97
2023-02-21T09:25:39.597Z,72.05
2023-02-21T09:28:07.589Z,72.93
2023-02-21T09:30:35.617Z,73.40
2023-02-21T09:33:03.730Z,74.47
2023-02-21T09:35:31.968Z,72.72
2023-02-21T09:38:01.970Z,72.55
2023-02-21T09:40:37.666Z,75.57
2023-02-21T09:43:09.453Z,76.00
2023-02-21T09:45:38.374Z,73.18
2023-02-21T09:48:10.443Z,83.05
2023-02-21T09:50:44.362Z,74.18
2023-02-21T09:53:17.973Z,75.82
2023-02-21T09:55:46.903Z,72.95
2023-02-21T09:58:16.670Z,77.85
2023-02-21T10:00:46.747Z,76.68
2023-02-21T10:03:42.835Z,74.00
2023-02-21T10:06:21.585Z,74.20
2023-02-21T10:08:55.630Z,73.72
2023-02-21T10:11:40.816Z,69.20
2023-02-21T10:14:20.235Z,68.03
2023-02-21T10:16:56.096Z,70.85
2023-02-21T10:19:31.435Z,63.53
2023-02-21T10:22:02.164Z,68.85
2023-02-21T10:24:32.005Z,69.90
2023-02-21T10:27:04.280Z,65.25
2023-02-21T10:29:41.011Z,67.07
2023-02-21T10:32:10.016Z,65.35
2023-02-21T10:34:38.114Z,68.85
2023-02-21T10:37:25.148Z,66.22
2023-02-21T10:39:59.606Z,69.75
2023-02-21T10:42:32.432Z,70.03
2023-02-21T10:45:01.505Z,72.53
2023-02-21T10:47:39.682Z,71.05
2023-02-21T10:50:12.069Z,70.57
2023-02-21T10:55:31.669Z,67.05
2023-02-21T10:58:08.731Z,66.28
2023-02-21T11:00:39.020Z,64.82
2023-02-21T11:03:13.877Z,59.88
2023-02-21T11:05:49.373Z,62.55
2023-02-21T11:08:34.650Z,61.40
2023-02-21T11:11:04.099Z,58.35
2023-02-21T11:13:33.493Z,58.80
2023-02-21T11:16:12.009Z,59.35
2023-02-21T11:18:40.556Z,62.88
2023-02-21T11:21:14.705Z,56.53
2023-02-21T11:23:48.519Z,60.33
2023-02-21T11:26:18.028Z,54.90
2023-02-21T11:28:47.555Z,54.88
2023-02-21T11:31:19.324Z,52.97
2023-02-21T11:33:55.950Z,51.40
2023-02-21T11:36:29.659Z,52.22
2023-02-21T11:39:05.494Z,50.53
2023-02-21T11:41:46.247Z,49.03
2023-02-21T11:44:29.677Z,49.60
2023-02-21T11:47:08.200Z,53.70
2023-02-21T11:49:49.883Z,51.63
2023-02-21T11:52:23.057Z,52.53
2023-02-21T11:54:51.115Z,49.00
2023-02-21T11:57:27.429Z,49.08
2023-02-21T12:00:08.792Z,49.47
2023-02-21T12:03:03.882Z,46.50
2023-02-21T12:05:44.542Z,48.22
2023-02-21T12:08:37.818Z,48.70
2023-02-21T12:11:23.312Z,47.25
2023-02-21T12:14:03.514Z,45.90
2023-02-21T12:16:43.087Z,49.47
2023-02-21T12:19:28.479Z,47.50
2023-02-21T12:22:04.259Z,45.08
2023-02-21T12:24:47.757Z,43.65
2023-02-21T12:27:22.741Z,43.35
2023-02-21T12:30:11.059Z,41.53
2023-02-21T12:32:50.706Z,45.40
2023-02-21T12:36:02.641Z,46.05
2023-02-21T12:38:40.364Z,45.72
2023-02-21T12:41:25.055Z,44.33
2023-02-21T12:44:01.800Z,37.63
2023-02-21T12:46:36.643Z,35.92
2023-02-21T12:49:10.061Z,32.47
2023-02-21T12:51:42.143Z,28.38
2023-02-21T12:54:16.145Z,28.15
2023-02-21T12:56:49.673Z,29.77
2023-02-21T12:59:24.600Z,30.42
2023-02-21T13:02:01.375Z,30.50
2023-02-21T13:04:39.236Z,30.13
2023-02-21T13:07:25.295Z,27.20
2023-02-21T13:10:00.430Z,25.25
2023-02-21T13:12:36.467Z,29.45
2023-02-21T13:15:14.552Z,30.30
2023-02-21T13:17:44.714Z,29.27
2023-02-21T13:20:20.084Z,24.98
2023-02-21T13:22:50.460Z,23.90
2023-02-21T13:25:25.992Z,22.77
2023-02-21T13:28:02.746Z,23.95
2023-02-21T13:30:40.596Z,20.48
2023-02-21T13:33:28.270Z,20.15
2023-02-21T13:35:59.985Z,19.58
2023-02-21T13:38:30.232Z,16.80
2023-02-21T13:41:09.878Z,15.25
2023-02-21T13:43:46.303Z,14.57
2023-02-21T13:47:16.046Z,14.02
2023-02-21T13:49:54.050Z,13.98
2023-02-21T13:52:53.512Z,16.02
2023-02-21T13:55:29.854Z,13.23
2023-02-21T13:58:34.173Z,13.88
2023-02-21T14:01:50.250Z,16.13
2023-02-21T14:05:02.742Z,16.17
2023-02-21T14:07:58.161Z,24.38
2023-02-21T14:10:33.021Z,24.95
2023-02-21T14:13:04.050Z,28.52
2023-02-21T14:15:41.342Z,33.22
2023-02-21T14:18:17.941Z,36.08
2023-02-21T14:20:49.864Z,41.70
2023-02-21T14:23:21.264Z,40.60
2023-02-21T14:26:00.073Z,47.10
2023-02-21T14:28:50.984Z,48.25
2023-02-21T14:31:50.121Z,46.40
2023-02-21T14:34:23.834Z,51.60
2023-02-21T14:36:53.161Z,52.47
2023-02-21T14:39:24.441Z,54.22
2023-02-21T14:42:05.799Z,50.38
2023-02-21T14:44:41.239Z,61.00
2023-02-21T14:47:28.139Z,59.05
2023-02-21T14:50:14.147Z,64.75
2023-02-21T14:53:14.738Z,60.20
2023-02-21T14:56:04.522Z,63.20
2023-02-21T14:59:02.481Z,58.78
2023-02-21T15:01:47.039Z,64.70
2023-02-21T15:04:24.891Z,64.57
2023-02-21T15:07:02.191Z,61.00
2023-02-21T15:09:30.223Z,62.75
2023-02-21T15:12:00.253Z,63.20
2023-02-21T15:14:35.346Z,61.38
2023-02-21T15:17:13.609Z,61.47
2023-02-21T15:19:41.710Z,61.78
2023-02-21T15:22:24.789Z,63.63
2023-02-21T15:25:01.242Z,64.38
2023-02-21T15:27:30.710Z,62.05
2023-02-21T15:30:10.060Z,68.57
2023-02-21T15:32:38.262Z,68.95
2023-02-21T15:35:08.403Z,67.10
2023-02-21T15:37:39.886Z,70.63
2023-02-21T15:40:16.060Z,65.75
2023-02-21T15:42:48.154Z,69.35
2023-02-21T15:45:22.343Z,67.80
2023-02-21T15:47:51.239Z,66.03
2023-02-21T15:50:31.030Z,69.57
2023-02-21T15:53:16.237Z,65.55
2023-02-21T15:55:45.432Z,58.25
2023-02-21T15:58:19.616Z,59.63
2023-02-21T16:00:49.000Z,56.08
2023-02-21T16:03:41.565Z,55.70
2023-02-21T16:06:23.555Z,62.95
2023-02-21T16:08:59.807Z,63.20
2023-02-21T16:11:39.718Z,63.10
2023-02-21T16:14:19.826Z,65.80
2023-02-21T16:16:53.737Z,69.03
2023-02-21T16:19:24.424Z,66.18
2023-02-21T16:22:12.593Z,64.32
2023-02-21T16:24:41.732Z,72.28
2023-02-21T16:27:13.346Z,68.93
2023-02-21T16:29:43.075Z,67.55
2023-02-21T16:32:18.699Z,69.18
2023-02-21T16:34:47.241Z,70.55
2023-02-21T16:37:16.199Z,66.60
2023-02-21T16:39:44.718Z,68.18
2023-02-21T16:42:12.981Z,71.35
2023-02-21T16:44:44.621Z,63.40
2023-02-21T16:47:15.455Z,65.03
2023-02-21T16:49:43.582Z,68.95
2023-02-21T16:52:14.830Z,71.88
2023-02-21T16:54:42.891Z,79.60
2023-02-21T16:57:12.100Z,77.07
2023-02-21T16:59:40.216Z,74.32
2023-02-21T17:02:15.132Z,68.95
2023-02-21T17:04:43.236Z,74.07
2023-02-21T17:07:11.756Z,57.58
2023-02-21T17:09:40.891Z,63.30
2023-02-21T17:12:09.561Z,61.35
2023-02-21T17:14:37.581Z,56.38
2023-02-21T17:17:05.575Z,63.72
2023-02-21T17:19:35.098Z,63.50
2023-02-21T17:22:03.740Z,67.15
2023-02-21T17:24:31.858Z,62.65
2023-02-21T17:27:01.420Z,68.03
2023-02-21T17:29:29.670Z,71.30
2023-02-21T17:31:58.715Z,69.25
2023-02-21T17:34:26.949Z,72.45
2023-02-21T17:36:56.315Z,74.95
2023-02-21T17:39:24.412Z,75.65
2023-02-21T17:41:53.250Z,73.88
2023-02-21T17:44:21.328Z,77.45
2023-02-21T17:46:49.594Z,75.13
2023-02-21T17:49:19.068Z,72.07
2023-02-21T17:51:47.811Z,75.63
2023-02-21T17:54:18.753Z,72.40
2023-02-21T17:56:46.898Z,68.53
2023-02-21T17:59:15.537Z,66.65
2023-02-21T18:01:44.078Z,66.63
2023-02-21T18:04:13.798Z,66.18
2023-02-21T18:06:42.960Z,63.47
2023-02-21T18:09:11.203Z,63.55
2023-02-21T18:11:40.739Z,61.20
2023-02-21T18:14:08.890Z,63.33
2023-02-21T18:16:36.942Z,60.40
2023-02-21T18:19:04.937Z,59.17
2023-02-21T18:21:33.568Z,58.50
2023-02-21T18:24:02.048Z,62.65
2023-02-21T18:26:30.294Z,63.53
2023-02-21T18:29:00.311Z,59.13
2023-02-21T18:31:28.532Z,62.75
2023-02-21T18:33:56.655Z,62.00
2023-02-21T18:36:24.691Z,62.50
2023-02-21T18:38:52.737Z,59.78
2023-02-21T18:41:22.727Z,60.28
2023-02-21T18:43:51.129Z,59.85
2023-02-21T18:46:23.894Z,64.72
2023-02-21T18:48:52.318Z,63.22
2023-02-21T18:51:21.756Z,69.38
2023-02-21T18:53:50.461Z,73.47
2023-02-21T18:56:20.364Z,71.75
2023-02-21T18:58:49.342Z,63.60
2023-02-21T19:01:19.655Z,62.15
2023-02-21T19:03:51.193Z,63.38
2023-02-21T19:06:20.696Z,65.22
2023-02-21T19:08:50.381Z,51.15
2023-02-21T19:11:19.035Z,46.35
2023-02-21T19:13:50.006Z,48.08
2023-02-21T19:16:20.660Z,44.00
2023-02-21T19:18:53.901Z,44.25
2023-02-21T19:21:22.364Z,43.83
2023-02-21T19:23:50.679Z,45.15
2023-02-21T19:26:20.062Z,45.25
2023-02-21T19:28:48.289Z,45.88
2023-02-21T19:31:20.704Z,54.33
2023-02-21T19:33:50.472Z,50.67
2023-02-21T19:36:18.927Z,55.42
2023-02-21T19:38:46.988Z,52.58
2023-02-21T19:41:17.909Z,49.78
2023-02-21T19:43:46.151Z,50.92
2023-02-21T19:46:22.396Z,45.45
2023-02-21T19:48:53.453Z,38.60
2023-02-21T19:51:24.059Z,39.75
2023-02-21T19:53:52.277Z,39.05
2023-02-21T19:56:20.390Z,40.10
2023-02-21T19:58:48.459Z,39.65
2023-02-21T20:01:16.834Z,40.30
2023-02-21T20:03:47.488Z,39.28
2023-02-21T20:06:17.701Z,36.45
2023-02-21T20:08:48.246Z,39.08
2023-02-21T20:11:17.486Z,40.95
2023-02-21T20:13:45.902Z,44.75
2023-02-21T20:16:16.529Z,43.22
2023-02-21T20:18:44.736Z,41.97
2023-02-21T20:21:20.676Z,41.30
2023-02-21T20:23:49.023Z,46.83
2023-02-21T20:26:18.417Z,43.42
2023-02-21T20:28:49.105Z,58.22
2023-02-21T20:31:20.472Z,57.10
2023-02-21T20:33:49.345Z,53.60
2023-02-21T20:36:26.802Z,60.55
2023-02-21T20:38:54.957Z,62.00
2023-02-21T20:41:23.736Z,64.55
2023-02-21T20:43:53.996Z,64.28
2023-02-21T20:46:23.057Z,57.63
2023-02-21T20:48:51.845Z,74.22
2023-02-21T20:51:29.314Z,77.78
2023-02-21T20:54:00.348Z,76.05
2023-02-21T20:56:32.610Z,68.60
2023-02-21T20:59:01.318Z,65.95
2023-02-21T21:01:29.570Z,64.60
2023-02-21T21:03:57.735Z,63.33
2023-02-21T21:06:27.226Z,57.15
2023-02-21T21:08:55.350Z,62.65
2023-02-21T21:11:23.559Z,63.47
2023-02-21T21:13:51.640Z,65.15
2023-02-21T21:16:20.186Z,95.70
2023-02-21T21:18:48.283Z,86.18
2023-02-21T21:21:16.654Z,76.35
2023-02-21T21:23:46.339Z,68.60
2023-02-21T21:26:14.401Z,62.70
2023-02-21T21:28:42.702Z,67.50
2023-02-21T21:31:10.852Z,70.13
2023-02-21T21:33:38.976Z,73.40
2023-02-21T21:36:09.706Z,95.78
2023-02-21T21:38:40.636Z,98.85
2023-02-21T21:41:14.782Z,101.30
2023-02-21T21:43:44.607Z,86.55
2023-02-21T21:46:14.416Z,86.07
2023-02-21T21:48:44.035Z,83.88
2023-02-21T21:51:14.145Z,89.78
2023-02-21T21:53:42.720Z,86.80
2023-02-21T21:56:12.168Z,88.63
2023-02-21T21:58:41.191Z,87.38
2023-02-21T22:01:09.207Z,87.05
2023-02-21T22:03:37.286Z,85.32
2023-02-21T22:06:05.791Z,82.40
2023-02-21T22:08:33.963Z,78.95
2023-02-21T22:11:02.201Z,87.72
2023-02-21T22:13:33.892Z,84.15
2023-02-21T22:16:02.854Z,87.85
2023-02-21T22:18:31.199Z,74.97
2023-02-21T22:20:59.229Z,82.03
2023-02-21T22:23:29.215Z,82.28
2023-02-21T22:25:58.010Z,77.07
2023-02-21T22:28:26.204Z,82.78
2023-02-21T22:30:55.874Z,79.60
2023-02-21T22:33:23.932Z,80.57
2023-02-21T22:35:51.970Z,80.10
2023-02-21T22:38:19.985Z,83.88
2023-02-21T22:40:48.155Z,82.15
2023-02-21T22:43:17.892Z,85.57
2023-02-21T22:45:50.000Z,82.80
2023-02-21T22:50:49.767Z,83.93
2023-02-21T22:53:19.728Z,94.65
2023-02-21T22:55:51.792Z,87.45
2023-02-21T22:58:21.423Z,85.30
2023-02-21T23:00:50.614Z,85.85
2023-02-21T23:03:20.080Z,94.88
2023-02-21T23:05:51.716Z,91.40
2023-02-21T23:08:22.731Z,96.65
2023-02-21T23:10:51.755Z,87.18
2023-02-21T23:13:23.027Z,96.32
2023-02-21T23:15:54.715Z,88.82
2023-02-21T23:18:26.488Z,90.13
2023-02-21T23:20:56.846Z,92.25
2023-02-21T23:23:27.083Z,93.53
2023-02-21T23:25:58.975Z,90.25
2023-02-21T23:28:28.843Z,91.20
2023-02-21T23:30:58.362Z,104.47
2023-02-21T23:33:29.726Z,100.40
2023-02-21T23:35:59.112Z,97.43
2023-02-21T23:38:28.988Z,94.25
2023-02-21T23:40:58.844Z,98.82
2023-02-21T23:43:29.372Z,99.82
2023-02-21T23:45:58.787Z,102.38
2023-02-21T23:48:29.536Z,101.93
2023-02-21T23:50:58.755Z,93.13
2023-02-21T23:53:31.723Z,106.80
2023-02-21T23:56:00.776Z,104.20
2023-02-21T23:58:31.610Z,107.47
